sensor_id;sensor_type;location;lat;lon;timestamp;temperature;humidity
7214;DHT22;3648;50.614;13.830;2023-03-20T00:00:08;7.50;99.90
7214;DHT22;3648;50.614;13.830;2023-03-20T00:02:36;7.50;99.90
7214;DHT22;3648;50.614;13.830;2023-03-20T00:05:20;7.50;99.90
7214;DHT22;3648;50.614;13.830;2023-03-20T00:07:49;7.50;99.90
7214;DHT22;3648;50.614;13.830;2023-03-20T00:10:18;7.50;99.90
7214;DHT22;3648;50.614;13.830;2023-03-20T00:12:46;7.50;99.90
7214;DHT22;3648;50.614;13.830;2023-03-20T00:15:24;7.40;99.90
7214;DHT22;3648;50.614;13.830;2023-03-20T00:17:51;7.30;99.90
7214;DHT22;3648;50.614;13.830;2023-03-20T00:20:19;7.20;99.90
7214;DHT22;3648;50.614;13.830;2023-03-20T00:22:46;7.20;99.90
7214;DHT22;3648;50.614;13.830;2023-03-20T00:25:16;7.20;99.90
7214;DHT22;3648;50.614;13.830;2023-03-20T00:27:44;7.20;99.90
7214;DHT22;3648;50.614;13.830;2023-03-20T00:30:25;7.30;99.90
7214;DHT22;3648;50.614;13.830;2023-03-20T00:32:55;7.30;99.90
7214;DHT22;3648;50.614;13.830;2023-03-20T00:35:25;7.30;99.90
7214;DHT22;3648;50.614;13.830;2023-03-20T00:37:54;7.20;99.90
7214;DHT22;3648;50.614;13.830;2023-03-20T00:40:23;7.10;99.90
7214;DHT22;3648;50.614;13.830;2023-03-20T00:42:57;7.20;99.90
7214;DHT22;3648;50.614;13.830;2023-03-20T00:45:25;7.20;99.90
7214;DHT22;3648;50.614;13.830;2023-03-20T00:47:53;7.20;99.90
7214;DHT22;3648;50.614;13.830;2023-03-20T00:50:22;7.20;99.90
7214;DHT22;3648;50.614;13.830;2023-03-20T00:52:49;7.20;99.90
7214;DHT22;3648;50.614;13.830;2023-03-20T00:55:17;7.20;99.90
7214;DHT22;3648;50.614;13.830;2023-03-20T00:57:48;7.20;99.90
7214;DHT22;3648;50.614;13.830;2023-03-20T01:03:09;7.10;99.90
7214;DHT22;3648;50.614;13.830;2023-03-20T01:05:37;7.10;99.90
7214;DHT22;3648;50.614;13.830;2023-03-20T01:08:09;7.10;99.90
7214;DHT22;3648;50.614;13.830;2023-03-20T01:10:37;7.10;99.90
7214;DHT22;3648;50.614;13.830;2023-03-20T01:13:19;7.20;99.90
7214;DHT22;3648;50.614;13.830;2023-03-20T01:15:47;7.20;99.90
7214;DHT22;3648;50.614;13.830;2023-03-20T01:18:14;7.10;99.90
7214;DHT22;3648;50.614;13.830;2023-03-20T01:20:42;7.10;99.90
7214;DHT22;3648;50.614;13.830;2023-03-20T01:23:10;7.00;99.90
7214;DHT22;3648;50.614;13.830;2023-03-20T01:25:38;6.90;99.90
7214;DHT22;3648;50.614;13.830;2023-03-20T01:28:14;6.90;99.90
7214;DHT22;3648;50.614;13.830;2023-03-20T01:30:43;6.90;99.90
7214;DHT22;3648;50.614;13.830;2023-03-20T01:33:13;6.90;99.90
7214;DHT22;3648;50.614;13.830;2023-03-20T01:35:41;6.90;99.90
7214;DHT22;3648;50.614;13.830;2023-03-20T01:38:13;6.90;99.90
7214;DHT22;3648;50.614;13.830;2023-03-20T01:40:48;6.90;99.90
7214;DHT22;3648;50.614;13.830;2023-03-20T01:43:20;6.90;99.90
7214;DHT22;3648;50.614;13.830;2023-03-20T01:45:55;7.00;99.90
7214;DHT22;3648;50.614;13.830;2023-03-20T01:48:24;7.00;99.90
7214;DHT22;3648;50.614;13.830;2023-03-20T01:50:52;7.00;99.90
7214;DHT22;3648;50.614;13.830;2023-03-20T01:53:21;7.10;99.90
7214;DHT22;3648;50.614;13.830;2023-03-20T01:55:51;7.20;99.90
7214;DHT22;3648;50.614;13.830;2023-03-20T01:58:24;7.30;99.90
7214;DHT22;3648;50.614;13.830;2023-03-20T02:00:53;7.40;99.90
7214;DHT22;3648;50.614;13.830;2023-03-20T02:03:20;7.40;99.90
7214;DHT22;3648;50.614;13.830;2023-03-20T02:05:49;7.50;99.90
7214;DHT22;3648;50.614;13.830;2023-03-20T02:08:21;7.60;99.90
7214;DHT22;3648;50.614;13.830;2023-03-20T02:10:48;7.60;99.90
7214;DHT22;3648;50.614;13.830;2023-03-20T02:13:16;7.70;99.90
7214;DHT22;3648;50.614;13.830;2023-03-20T02:16:04;7.70;99.90
7214;DHT22;3648;50.614;13.830;2023-03-20T02:18:32;7.70;99.90
7214;DHT22;3648;50.614;13.830;2023-03-20T02:21:22;7.70;99.90
7214;DHT22;3648;50.614;13.830;2023-03-20T02:24:21;7.70;99.90
7214;DHT22;3648;50.614;13.830;2023-03-20T02:27:02;7.80;99.90
7214;DHT22;3648;50.614;13.830;2023-03-20T02:30:04;7.90;99.90
7214;DHT22;3648;50.614;13.830;2023-03-20T02:33:02;7.90;99.90
7214;DHT22;3648;50.614;13.830;2023-03-20T02:39:02;8.00;99.90
7214;DHT22;3648;50.614;13.830;2023-03-20T02:41:36;7.90;99.90
7214;DHT22;3648;50.614;13.830;2023-03-20T02:44:07;8.00;99.90
7214;DHT22;3648;50.614;13.830;2023-03-20T02:46:44;8.00;99.90
7214;DHT22;3648;50.614;13.830;2023-03-20T02:49:27;8.00;99.90
7214;DHT22;3648;50.614;13.830;2023-03-20T02:52:00;8.00;99.90
7214;DHT22;3648;50.614;13.830;2023-03-20T02:54:35;8.10;99.90
7214;DHT22;3648;50.614;13.830;2023-03-20T02:57:07;8.00;99.90
7214;DHT22;3648;50.614;13.830;2023-03-20T02:59:40;8.00;99.90
7214;DHT22;3648;50.614;13.830;2023-03-20T03:02:12;8.00;99.90
7214;DHT22;3648;50.614;13.830;2023-03-20T03:04:44;7.90;99.90
7214;DHT22;3648;50.614;13.830;2023-03-20T03:07:14;7.80;99.90
7214;DHT22;3648;50.614;13.830;2023-03-20T03:09:48;7.80;99.90
7214;DHT22;3648;50.614;13.830;2023-03-20T03:12:18;7.80;99.90
7214;DHT22;3648;50.614;13.830;2023-03-20T03:14:48;7.70;99.90
7214;DHT22;3648;50.614;13.830;2023-03-20T03:17:18;7.60;99.90
7214;DHT22;3648;50.614;13.830;2023-03-20T03:19:48;7.70;99.90
7214;DHT22;3648;50.614;13.830;2023-03-20T03:22:17;7.60;99.90
7214;DHT22;3648;50.614;13.830;2023-03-20T03:24:47;7.60;99.90
7214;DHT22;3648;50.614;13.830;2023-03-20T03:27:19;7.60;99.90
7214;DHT22;3648;50.614;13.830;2023-03-20T03:29:50;7.60;99.90
7214;DHT22;3648;50.614;13.830;2023-03-20T03:32:22;7.60;99.90
7214;DHT22;3648;50.614;13.830;2023-03-20T03:34:50;7.50;99.90
7214;DHT22;3648;50.614;13.830;2023-03-20T03:37:23;7.50;99.90
7214;DHT22;3648;50.614;13.830;2023-03-20T03:39:58;7.50;99.90
7214;DHT22;3648;50.614;13.830;2023-03-20T03:42:31;7.50;99.90
7214;DHT22;3648;50.614;13.830;2023-03-20T03:45:02;7.50;99.90
7214;DHT22;3648;50.614;13.830;2023-03-20T03:47:33;7.50;99.90
7214;DHT22;3648;50.614;13.830;2023-03-20T03:50:05;7.50;99.90
7214;DHT22;3648;50.614;13.830;2023-03-20T03:52:33;7.50;99.90
7214;DHT22;3648;50.614;13.830;2023-03-20T03:55:04;7.50;99.90
7214;DHT22;3648;50.614;13.830;2023-03-20T03:57:35;7.50;99.90
7214;DHT22;3648;50.614;13.830;2023-03-20T04:00:04;7.50;99.90
7214;DHT22;3648;50.614;13.830;2023-03-20T04:02:33;7.50;99.90
7214;DHT22;3648;50.614;13.830;2023-03-20T04:05:01;7.50;99.90
7214;DHT22;3648;50.614;13.830;2023-03-20T04:07:29;7.40;99.90
7214;DHT22;3648;50.614;13.830;2023-03-20T04:09:56;7.40;99.90
7214;DHT22;3648;50.614;13.830;2023-03-20T04:12:35;7.30;99.90
7214;DHT22;3648;50.614;13.830;2023-03-20T04:15:03;7.30;99.90
7214;DHT22;3648;50.614;13.830;2023-03-20T04:17:30;7.20;99.90
7214;DHT22;3648;50.614;13.830;2023-03-20T04:19:57;7.30;99.90
7214;DHT22;3648;50.614;13.830;2023-03-20T04:22:25;7.30;99.90
7214;DHT22;3648;50.614;13.830;2023-03-20T04:24:52;7.40;99.90
7214;DHT22;3648;50.614;13.830;2023-03-20T04:27:19;7.30;99.90
7214;DHT22;3648;50.614;13.830;2023-03-20T04:29:47;7.30;99.90
7214;DHT22;3648;50.614;13.830;2023-03-20T04:32:14;7.30;99.90
7214;DHT22;3648;50.614;13.830;2023-03-20T04:34:41;7.40;99.90
7214;DHT22;3648;50.614;13.830;2023-03-20T04:37:08;7.40;99.90
7214;DHT22;3648;50.614;13.830;2023-03-20T04:39:35;7.40;99.90
7214;DHT22;3648;50.614;13.830;2023-03-20T04:42:03;7.40;99.90
7214;DHT22;3648;50.614;13.830;2023-03-20T04:44:30;7.40;99.90
7214;DHT22;3648;50.614;13.830;2023-03-20T04:46:59;7.50;99.90
7214;DHT22;3648;50.614;13.830;2023-03-20T04:49:26;7.50;99.90
7214;DHT22;3648;50.614;13.830;2023-03-20T04:51:53;7.50;99.90
7214;DHT22;3648;50.614;13.830;2023-03-20T04:54:20;7.50;99.90
7214;DHT22;3648;50.614;13.830;2023-03-20T04:56:47;7.50;99.90
7214;DHT22;3648;50.614;13.830;2023-03-20T04:59:14;7.50;99.90
7214;DHT22;3648;50.614;13.830;2023-03-20T05:01:41;7.40;99.90
7214;DHT22;3648;50.614;13.830;2023-03-20T05:04:09;7.50;99.90
7214;DHT22;3648;50.614;13.830;2023-03-20T05:06:36;7.50;99.90
7214;DHT22;3648;50.614;13.830;2023-03-20T05:09:03;7.50;99.90
7214;DHT22;3648;50.614;13.830;2023-03-20T05:11:30;7.50;99.90
7214;DHT22;3648;50.614;13.830;2023-03-20T05:13:57;7.40;99.90
7214;DHT22;3648;50.614;13.830;2023-03-20T05:16:24;7.40;99.90
7214;DHT22;3648;50.614;13.830;2023-03-20T05:18:51;7.40;99.90
7214;DHT22;3648;50.614;13.830;2023-03-20T05:21:20;7.40;99.90
7214;DHT22;3648;50.614;13.830;2023-03-20T05:23:47;7.40;99.90
7214;DHT22;3648;50.614;13.830;2023-03-20T05:26:14;7.30;99.90
7214;DHT22;3648;50.614;13.830;2023-03-20T05:28:41;7.40;99.90
7214;DHT22;3648;50.614;13.830;2023-03-20T05:31:08;7.40;99.90
7214;DHT22;3648;50.614;13.830;2023-03-20T05:33:35;7.40;99.90
7214;DHT22;3648;50.614;13.830;2023-03-20T05:36:02;7.40;99.90
7214;DHT22;3648;50.614;13.830;2023-03-20T05:38:31;7.40;99.90
7214;DHT22;3648;50.614;13.830;2023-03-20T05:40:59;7.40;99.90
7214;DHT22;3648;50.614;13.830;2023-03-20T05:43:26;7.40;99.90
7214;DHT22;3648;50.614;13.830;2023-03-20T05:45:54;7.50;99.90
7214;DHT22;3648;50.614;13.830;2023-03-20T05:48:21;7.40;99.90
7214;DHT22;3648;50.614;13.830;2023-03-20T05:50:48;7.50;99.90
7214;DHT22;3648;50.614;13.830;2023-03-20T05:53:15;7.40;99.90
7214;DHT22;3648;50.614;13.830;2023-03-20T05:55:44;7.40;99.90
7214;DHT22;3648;50.614;13.830;2023-03-20T05:58:11;7.50;99.90
7214;DHT22;3648;50.614;13.830;2023-03-20T06:00:38;7.50;99.90
7214;DHT22;3648;50.614;13.830;2023-03-20T06:03:05;7.50;99.90
7214;DHT22;3648;50.614;13.830;2023-03-20T06:05:33;7.50;99.90
7214;DHT22;3648;50.614;13.830;2023-03-20T06:08:01;7.60;99.90
7214;DHT22;3648;50.614;13.830;2023-03-20T06:10:28;7.60;99.90
7214;DHT22;3648;50.614;13.830;2023-03-20T06:12:57;7.60;99.90
7214;DHT22;3648;50.614;13.830;2023-03-20T06:15:26;7.60;99.90
7214;DHT22;3648;50.614;13.830;2023-03-20T06:17:53;7.60;99.90
7214;DHT22;3648;50.614;13.830;2023-03-20T06:20:20;7.60;99.90
7214;DHT22;3648;50.614;13.830;2023-03-20T06:22:47;7.70;99.90
7214;DHT22;3648;50.614;13.830;2023-03-20T06:25:14;7.70;99.90
7214;DHT22;3648;50.614;13.830;2023-03-20T06:27:41;7.70;99.90
7214;DHT22;3648;50.614;13.830;2023-03-20T06:30:11;7.70;99.90
7214;DHT22;3648;50.614;13.830;2023-03-20T06:32:38;7.70;99.90
7214;DHT22;3648;50.614;13.830;2023-03-20T06:35:06;7.70;99.90
7214;DHT22;3648;50.614;13.830;2023-03-20T06:37:34;7.70;99.90
7214;DHT22;3648;50.614;13.830;2023-03-20T06:40:05;7.70;99.90
7214;DHT22;3648;50.614;13.830;2023-03-20T06:42:33;7.80;99.90
7214;DHT22;3648;50.614;13.830;2023-03-20T06:44:59;7.80;99.90
7214;DHT22;3648;50.614;13.830;2023-03-20T06:47:28;7.90;99.90
7214;DHT22;3648;50.614;13.830;2023-03-20T06:49:55;7.90;99.90
7214;DHT22;3648;50.614;13.830;2023-03-20T06:52:22;7.90;99.90
7214;DHT22;3648;50.614;13.830;2023-03-20T06:54:49;7.90;99.90
7214;DHT22;3648;50.614;13.830;2023-03-20T06:57:16;7.90;99.90
7214;DHT22;3648;50.614;13.830;2023-03-20T06:59:43;8.00;99.90
7214;DHT22;3648;50.614;13.830;2023-03-20T07:02:11;8.00;99.90
7214;DHT22;3648;50.614;13.830;2023-03-20T07:04:39;8.10;99.90
7214;DHT22;3648;50.614;13.830;2023-03-20T07:07:06;8.10;99.90
7214;DHT22;3648;50.614;13.830;2023-03-20T07:09:33;8.20;99.90
7214;DHT22;3648;50.614;13.830;2023-03-20T07:12:01;8.20;99.90
7214;DHT22;3648;50.614;13.830;2023-03-20T07:14:29;8.40;99.90
7214;DHT22;3648;50.614;13.830;2023-03-20T07:16:56;8.40;99.90
7214;DHT22;3648;50.614;13.830;2023-03-20T07:19:23;8.50;99.90
7214;DHT22;3648;50.614;13.830;2023-03-20T07:21:54;8.70;99.90
7214;DHT22;3648;50.614;13.830;2023-03-20T07:24:22;8.80;99.90
7214;DHT22;3648;50.614;13.830;2023-03-20T07:26:48;9.00;99.90
7214;DHT22;3648;50.614;13.830;2023-03-20T07:29:15;9.00;99.90
7214;DHT22;3648;50.614;13.830;2023-03-20T07:31:42;9.10;99.90
7214;DHT22;3648;50.614;13.830;2023-03-20T07:34:09;9.20;99.90
7214;DHT22;3648;50.614;13.830;2023-03-20T07:36:37;9.20;99.90
7214;DHT22;3648;50.614;13.830;2023-03-20T07:39:07;9.40;99.90
7214;DHT22;3648;50.614;13.830;2023-03-20T07:41:34;9.50;99.90
7214;DHT22;3648;50.614;13.830;2023-03-20T07:44:01;9.80;99.90
7214;DHT22;3648;50.614;13.830;2023-03-20T07:46:28;10.00;99.90
7214;DHT22;3648;50.614;13.830;2023-03-20T07:48:55;10.20;99.90
7214;DHT22;3648;50.614;13.830;2023-03-20T07:51:23;10.40;99.90
7214;DHT22;3648;50.614;13.830;2023-03-20T07:53:50;10.40;99.90
7214;DHT22;3648;50.614;13.830;2023-03-20T07:56:18;10.50;99.90
7214;DHT22;3648;50.614;13.830;2023-03-20T07:58:45;10.60;99.90
7214;DHT22;3648;50.614;13.830;2023-03-20T08:01:12;10.60;99.90
7214;DHT22;3648;50.614;13.830;2023-03-20T08:03:39;10.90;99.90
7214;DHT22;3648;50.614;13.830;2023-03-20T08:06:07;11.10;99.90
7214;DHT22;3648;50.614;13.830;2023-03-20T08:08:35;11.20;99.90
7214;DHT22;3648;50.614;13.830;2023-03-20T08:11:02;11.40;99.90
7214;DHT22;3648;50.614;13.830;2023-03-20T08:13:30;11.50;99.90
7214;DHT22;3648;50.614;13.830;2023-03-20T08:15:57;11.80;99.90
7214;DHT22;3648;50.614;13.830;2023-03-20T08:18:24;12.10;99.90
7214;DHT22;3648;50.614;13.830;2023-03-20T08:20:51;12.30;99.90
7214;DHT22;3648;50.614;13.830;2023-03-20T08:23:18;12.50;99.90
7214;DHT22;3648;50.614;13.830;2023-03-20T08:25:46;12.70;99.90
7214;DHT22;3648;50.614;13.830;2023-03-20T08:28:14;12.80;99.90
7214;DHT22;3648;50.614;13.830;2023-03-20T08:30:43;12.90;99.90
7214;DHT22;3648;50.614;13.830;2023-03-20T08:33:10;12.80;99.90
7214;DHT22;3648;50.614;13.830;2023-03-20T08:35:37;13.00;99.90
7214;DHT22;3648;50.614;13.830;2023-03-20T08:38:04;13.30;99.90
7214;DHT22;3648;50.614;13.830;2023-03-20T08:40:32;13.40;99.90
7214;DHT22;3648;50.614;13.830;2023-03-20T08:42:58;13.60;99.90
7214;DHT22;3648;50.614;13.830;2023-03-20T08:45:25;13.60;99.90
7214;DHT22;3648;50.614;13.830;2023-03-20T08:47:54;13.50;99.90
7214;DHT22;3648;50.614;13.830;2023-03-20T08:50:21;13.50;99.90
7214;DHT22;3648;50.614;13.830;2023-03-20T08:52:48;13.40;99.90
7214;DHT22;3648;50.614;13.830;2023-03-20T08:55:15;13.50;99.90
7214;DHT22;3648;50.614;13.830;2023-03-20T08:57:42;13.50;99.90
7214;DHT22;3648;50.614;13.830;2023-03-20T09:00:11;13.50;99.90
7214;DHT22;3648;50.614;13.830;2023-03-20T09:02:40;13.60;99.90
7214;DHT22;3648;50.614;13.830;2023-03-20T09:05:09;13.60;99.90
7214;DHT22;3648;50.614;13.830;2023-03-20T09:07:36;13.70;99.90
7214;DHT22;3648;50.614;13.830;2023-03-20T09:10:04;13.70;99.90
7214;DHT22;3648;50.614;13.830;2023-03-20T09:12:31;13.70;99.90
7214;DHT22;3648;50.614;13.830;2023-03-20T09:14:58;13.80;99.90
7214;DHT22;3648;50.614;13.830;2023-03-20T09:17:25;14.20;99.90
7214;DHT22;3648;50.614;13.830;2023-03-20T09:19:52;14.40;99.90
7214;DHT22;3648;50.614;13.830;2023-03-20T09:22:21;14.60;99.90
7214;DHT22;3648;50.614;13.830;2023-03-20T09:24:48;14.90;99.90
7214;DHT22;3648;50.614;13.830;2023-03-20T09:27:14;15.20;99.90
7214;DHT22;3648;50.614;13.830;2023-03-20T09:29:42;15.40;99.90
7214;DHT22;3648;50.614;13.830;2023-03-20T09:32:10;15.70;99.90
7214;DHT22;3648;50.614;13.830;2023-03-20T09:34:37;16.00;99.90
7214;DHT22;3648;50.614;13.830;2023-03-20T09:37:05;16.20;99.90
7214;DHT22;3648;50.614;13.830;2023-03-20T09:39:33;16.10;99.90
7214;DHT22;3648;50.614;13.830;2023-03-20T09:42:10;16.20;99.90
7214;DHT22;3648;50.614;13.830;2023-03-20T09:44:50;16.20;99.90
7214;DHT22;3648;50.614;13.830;2023-03-20T09:47:26;16.40;99.90
7214;DHT22;3648;50.614;13.830;2023-03-20T09:50:06;16.50;99.90
7214;DHT22;3648;50.614;13.830;2023-03-20T09:52:36;16.70;99.90
7214;DHT22;3648;50.614;13.830;2023-03-20T09:55:12;16.80;99.90
7214;DHT22;3648;50.614;13.830;2023-03-20T09:57:42;17.00;99.90
7214;DHT22;3648;50.614;13.830;2023-03-20T10:00:13;17.10;99.90
7214;DHT22;3648;50.614;13.830;2023-03-20T10:02:46;17.20;99.90
7214;DHT22;3648;50.614;13.830;2023-03-20T10:05:20;17.20;99.90
7214;DHT22;3648;50.614;13.830;2023-03-20T10:07:48;17.10;99.90
7214;DHT22;3648;50.614;13.830;2023-03-20T10:10:17;17.10;99.90
7214;DHT22;3648;50.614;13.830;2023-03-20T10:12:52;16.90;99.90
7214;DHT22;3648;50.614;13.830;2023-03-20T10:15:33;16.90;99.90
7214;DHT22;3648;50.614;13.830;2023-03-20T10:18:10;16.80;99.90
7214;DHT22;3648;50.614;13.830;2023-03-20T10:20:45;16.50;99.90
7214;DHT22;3648;50.614;13.830;2023-03-20T10:23:19;16.50;99.90
7214;DHT22;3648;50.614;13.830;2023-03-20T10:25:57;16.30;99.90
7214;DHT22;3648;50.614;13.830;2023-03-20T10:28:30;16.30;99.90
7214;DHT22;3648;50.614;13.830;2023-03-20T10:31:18;16.10;99.90
7214;DHT22;3648;50.614;13.830;2023-03-20T10:33:56;15.80;99.90
7214;DHT22;3648;50.614;13.830;2023-03-20T10:36:38;15.70;99.90
7214;DHT22;3648;50.614;13.830;2023-03-20T10:39:12;15.70;99.90
7214;DHT22;3648;50.614;13.830;2023-03-20T10:41:48;15.60;99.90
7214;DHT22;3648;50.614;13.830;2023-03-20T10:44:28;15.40;99.90
7214;DHT22;3648;50.614;13.830;2023-03-20T10:46:59;15.20;99.90
7214;DHT22;3648;50.614;13.830;2023-03-20T10:49:32;15.00;99.90
7214;DHT22;3648;50.614;13.830;2023-03-20T10:52:02;15.00;99.90
7214;DHT22;3648;50.614;13.830;2023-03-20T10:54:32;14.80;99.90
7214;DHT22;3648;50.614;13.830;2023-03-20T10:57:03;14.70;99.90
7214;DHT22;3648;50.614;13.830;2023-03-20T10:59:33;14.80;99.90
7214;DHT22;3648;50.614;13.830;2023-03-20T11:02:08;14.80;99.90
7214;DHT22;3648;50.614;13.830;2023-03-20T11:04:36;14.90;99.90
7214;DHT22;3648;50.614;13.830;2023-03-20T11:07:14;14.90;99.90
7214;DHT22;3648;50.614;13.830;2023-03-20T11:09:47;15.00;99.90
7214;DHT22;3648;50.614;13.830;2023-03-20T11:12:40;15.10;99.90
7214;DHT22;3648;50.614;13.830;2023-03-20T11:15:18;15.20;99.90
7214;DHT22;3648;50.614;13.830;2023-03-20T11:17:54;15.20;99.90
7214;DHT22;3648;50.614;13.830;2023-03-20T11:20:22;15.10;99.90
7214;DHT22;3648;50.614;13.830;2023-03-20T11:22:49;15.10;99.90
7214;DHT22;3648;50.614;13.830;2023-03-20T11:25:24;14.80;99.90
7214;DHT22;3648;50.614;13.830;2023-03-20T11:27:56;14.70;99.90
7214;DHT22;3648;50.614;13.830;2023-03-20T11:30:23;14.50;99.90
7214;DHT22;3648;50.614;13.830;2023-03-20T11:32:54;14.40;99.90
7214;DHT22;3648;50.614;13.830;2023-03-20T11:35:27;14.30;99.90
7214;DHT22;3648;50.614;13.830;2023-03-20T11:38:09;14.20;99.90
7214;DHT22;3648;50.614;13.830;2023-03-20T11:40:39;14.20;99.90
7214;DHT22;3648;50.614;13.830;2023-03-20T11:43:11;14.20;99.90
7214;DHT22;3648;50.614;13.830;2023-03-20T11:45:40;14.20;99.90
7214;DHT22;3648;50.614;13.830;2023-03-20T11:48:15;14.20;99.90
7214;DHT22;3648;50.614;13.830;2023-03-20T11:50:46;14.20;99.90
7214;DHT22;3648;50.614;13.830;2023-03-20T11:53:22;14.30;99.90
7214;DHT22;3648;50.614;13.830;2023-03-20T11:56:04;14.40;99.90
7214;DHT22;3648;50.614;13.830;2023-03-20T11:58:36;14.50;99.90
7214;DHT22;3648;50.614;13.830;2023-03-20T12:01:06;14.60;99.90
7214;DHT22;3648;50.614;13.830;2023-03-20T12:03:41;14.80;99.90
7214;DHT22;3648;50.614;13.830;2023-03-20T12:06:13;14.90;99.90
7214;DHT22;3648;50.614;13.830;2023-03-20T12:08:44;15.00;99.90
7214;DHT22;3648;50.614;13.830;2023-03-20T12:11:22;15.00;99.90
7214;DHT22;3648;50.614;13.830;2023-03-20T12:13:52;14.90;99.90
7214;DHT22;3648;50.614;13.830;2023-03-20T12:16:24;15.10;99.90
7214;DHT22;3648;50.614;13.830;2023-03-20T12:18:54;15.00;99.90
7214;DHT22;3648;50.614;13.830;2023-03-20T12:21:25;14.90;99.90
7214;DHT22;3648;50.614;13.830;2023-03-20T12:23:55;14.80;99.90
7214;DHT22;3648;50.614;13.830;2023-03-20T12:26:31;14.70;99.90
7214;DHT22;3648;50.614;13.830;2023-03-20T12:29:06;14.60;99.90
7214;DHT22;3648;50.614;13.830;2023-03-20T12:31:40;14.50;99.90
7214;DHT22;3648;50.614;13.830;2023-03-20T12:34:13;14.50;99.90
7214;DHT22;3648;50.614;13.830;2023-03-20T12:36:43;14.50;99.90
7214;DHT22;3648;50.614;13.830;2023-03-20T12:39:13;14.40;99.90
7214;DHT22;3648;50.614;13.830;2023-03-20T12:41:59;14.50;99.90
7214;DHT22;3648;50.614;13.830;2023-03-20T12:44:35;14.60;99.90
7214;DHT22;3648;50.614;13.830;2023-03-20T12:50:09;14.60;99.90
7214;DHT22;3648;50.614;13.830;2023-03-20T12:52:46;14.70;99.90
7214;DHT22;3648;50.614;13.830;2023-03-20T12:55:22;14.70;99.90
7214;DHT22;3648;50.614;13.830;2023-03-20T12:58:02;14.80;99.90
7214;DHT22;3648;50.614;13.830;2023-03-20T13:00:36;14.80;99.90
7214;DHT22;3648;50.614;13.830;2023-03-20T13:03:22;14.80;99.90
7214;DHT22;3648;50.614;13.830;2023-03-20T13:06:01;14.70;99.90
7214;DHT22;3648;50.614;13.830;2023-03-20T13:11:39;14.70;99.90
7214;DHT22;3648;50.614;13.830;2023-03-20T13:14:13;14.50;99.90
7214;DHT22;3648;50.614;13.830;2023-03-20T13:16:50;14.50;99.90
7214;DHT22;3648;50.614;13.830;2023-03-20T13:19:25;14.40;99.90
7214;DHT22;3648;50.614;13.830;2023-03-20T13:21:57;14.40;99.90
7214;DHT22;3648;50.614;13.830;2023-03-20T13:24:33;14.30;99.90
7214;DHT22;3648;50.614;13.830;2023-03-20T13:27:10;14.30;99.90
7214;DHT22;3648;50.614;13.830;2023-03-20T13:29:45;14.30;99.90
7214;DHT22;3648;50.614;13.830;2023-03-20T13:32:22;14.30;99.90
7214;DHT22;3648;50.614;13.830;2023-03-20T13:35:00;14.30;99.90
7214;DHT22;3648;50.614;13.830;2023-03-20T13:37:32;14.40;99.90
7214;DHT22;3648;50.614;13.830;2023-03-20T13:40:10;14.40;99.90
7214;DHT22;3648;50.614;13.830;2023-03-20T13:42:44;14.30;99.90
7214;DHT22;3648;50.614;13.830;2023-03-20T13:45:24;14.30;99.90
7214;DHT22;3648;50.614;13.830;2023-03-20T13:47:54;14.40;99.90
7214;DHT22;3648;50.614;13.830;2023-03-20T13:50:33;14.40;99.90
7214;DHT22;3648;50.614;13.830;2023-03-20T13:53:09;14.30;99.90
7214;DHT22;3648;50.614;13.830;2023-03-20T13:55:44;14.40;99.90
7214;DHT22;3648;50.614;13.830;2023-03-20T13:58:24;14.40;99.90
7214;DHT22;3648;50.614;13.830;2023-03-20T14:00:58;14.30;99.90
7214;DHT22;3648;50.614;13.830;2023-03-20T14:03:32;14.30;99.90
7214;DHT22;3648;50.614;13.830;2023-03-20T14:06:15;14.20;99.90
7214;DHT22;3648;50.614;13.830;2023-03-20T14:08:47;14.20;99.90
7214;DHT22;3648;50.614;13.830;2023-03-20T14:11:26;14.00;99.90
7214;DHT22;3648;50.614;13.830;2023-03-20T14:14:06;14.00;99.90
7214;DHT22;3648;50.614;13.830;2023-03-20T14:16:34;13.90;99.90
7214;DHT22;3648;50.614;13.830;2023-03-20T14:19:07;13.70;99.90
7214;DHT22;3648;50.614;13.830;2023-03-20T14:21:35;13.50;99.90
7214;DHT22;3648;50.614;13.830;2023-03-20T14:24:03;13.30;99.90
7214;DHT22;3648;50.614;13.830;2023-03-20T14:26:35;13.20;99.90
7214;DHT22;3648;50.614;13.830;2023-03-20T14:29:19;13.20;99.90
7214;DHT22;3648;50.614;13.830;2023-03-20T14:31:48;13.20;99.90
7214;DHT22;3648;50.614;13.830;2023-03-20T14:34:20;13.20;99.90
7214;DHT22;3648;50.614;13.830;2023-03-20T14:36:57;13.10;99.90
7214;DHT22;3648;50.614;13.830;2023-03-20T14:39:38;13.00;99.90
7214;DHT22;3648;50.614;13.830;2023-03-20T14:42:20;12.90;99.90
7214;DHT22;3648;50.614;13.830;2023-03-20T14:45:18;12.90;99.90
7214;DHT22;3648;50.614;13.830;2023-03-20T14:47:50;12.70;99.90
7214;DHT22;3648;50.614;13.830;2023-03-20T14:50:22;12.70;99.90
7214;DHT22;3648;50.614;13.830;2023-03-20T14:53:01;12.70;99.90
7214;DHT22;3648;50.614;13.830;2023-03-20T14:55:32;12.60;99.90
7214;DHT22;3648;50.614;13.830;2023-03-20T14:58:04;12.50;99.90
7214;DHT22;3648;50.614;13.830;2023-03-20T15:00:44;12.50;99.90
7214;DHT22;3648;50.614;13.830;2023-03-20T15:03:14;12.40;99.90
7214;DHT22;3648;50.614;13.830;2023-03-20T15:05:44;12.30;99.90
7214;DHT22;3648;50.614;13.830;2023-03-20T15:08:17;12.30;99.90
7214;DHT22;3648;50.614;13.830;2023-03-20T15:10:50;12.20;99.90
7214;DHT22;3648;50.614;13.830;2023-03-20T15:13:18;12.20;99.90
7214;DHT22;3648;50.614;13.830;2023-03-20T15:15:53;12.20;99.90
7214;DHT22;3648;50.614;13.830;2023-03-20T15:18:22;12.10;99.90
7214;DHT22;3648;50.614;13.830;2023-03-20T15:20:51;12.10;99.90
7214;DHT22;3648;50.614;13.830;2023-03-20T15:23:18;12.10;99.90
7214;DHT22;3648;50.614;13.830;2023-03-20T15:25:47;12.10;99.90
7214;DHT22;3648;50.614;13.830;2023-03-20T15:28:17;12.00;99.90
7214;DHT22;3648;50.614;13.830;2023-03-20T15:30:47;11.90;99.90
7214;DHT22;3648;50.614;13.830;2023-03-20T15:33:16;12.00;99.90
7214;DHT22;3648;50.614;13.830;2023-03-20T15:35:45;12.00;99.90
7214;DHT22;3648;50.614;13.830;2023-03-20T15:38:15;12.00;99.90
7214;DHT22;3648;50.614;13.830;2023-03-20T15:40:43;12.00;99.90
7214;DHT22;3648;50.614;13.830;2023-03-20T15:43:14;12.00;99.90
7214;DHT22;3648;50.614;13.830;2023-03-20T15:45:43;12.00;99.90
7214;DHT22;3648;50.614;13.830;2023-03-20T15:48:14;12.00;99.90
7214;DHT22;3648;50.614;13.830;2023-03-20T15:50:42;12.00;99.90
7214;DHT22;3648;50.614;13.830;2023-03-20T15:53:17;12.00;99.90
7214;DHT22;3648;50.614;13.830;2023-03-20T15:55:50;12.10;99.90
7214;DHT22;3648;50.614;13.830;2023-03-20T15:58:17;12.10;99.90
7214;DHT22;3648;50.614;13.830;2023-03-20T16:00:46;12.20;99.90
7214;DHT22;3648;50.614;13.830;2023-03-20T16:03:15;12.20;99.90
7214;DHT22;3648;50.614;13.830;2023-03-20T16:05:45;12.20;99.90
7214;DHT22;3648;50.614;13.830;2023-03-20T16:08:14;12.20;99.90
7214;DHT22;3648;50.614;13.830;2023-03-20T16:10:45;12.20;99.90
7214;DHT22;3648;50.614;13.830;2023-03-20T16:13:14;12.20;99.90
7214;DHT22;3648;50.614;13.830;2023-03-20T16:15:43;12.20;99.90
7214;DHT22;3648;50.614;13.830;2023-03-20T16:18:14;12.20;99.90
7214;DHT22;3648;50.614;13.830;2023-03-20T16:20:47;12.10;99.90
7214;DHT22;3648;50.614;13.830;2023-03-20T16:23:23;12.10;99.90
7214;DHT22;3648;50.614;13.830;2023-03-20T16:25:57;12.00;99.90
7214;DHT22;3648;50.614;13.830;2023-03-20T16:28:25;11.90;99.90